Ann Arbor, MI

11:47 PM EDT on August 27, 2015 (GMT -0400)
Virginia Park | | Change Station
CLOSE
Current Station
Personal Weather Station
Location: Ann Arbor, MI
Elevation: 896 ft
Nearby Weather Stations

Elev 896 ft 42.28 °N, 83.77 °W | Updated 29 seconds ago

Fog
Fog
52.2 °F
Feels Like 52.2 °F
N
0.0
Wind Variable Wind from North
Gusts 0.0 mph

Today
High -- | Low -- °F
--% Chance of Precip.
Yesterday
High -- | Low -- °F
Precip. -- in
6:54 AM 8:17 PM
Waxing Gibbous, 96% visible
Pressure 30.18 in
Visibility 0.5 miles
Clouds Clear
Dew Point 52 °F
Humidity 98%
Rainfall 0.00 in
Snow Depth Not available.
UV 0 out of 12
Pollen 8.30 out of 12
Air Quality Not available.
Flu Activity Not available.
SPECI KARB 280339Z AUTO 00000KT 1/2SM FG CLR 10/09 A3018 RMK AO2 T01000094
Pressure 30.18 in
Visibility 0.5 miles
Clouds Clear
Dew Point 52 °F
Humidity 98%
Rainfall 0.00 in
Snow Depth Not available.
UV 0 out of 12
Pollen 8.30 out of 12
Air Quality Not available.
Flu Activity Not available.
SPECI KARB 280339Z AUTO 00000KT 1/2SM FG CLR 10/09 A3018 RMK AO2 T01000094

10-Day Weather Forecast

×

Almanac

Astronomy

Aug. 27, 2015 Rise Set
Actual Time
Civil Twilight
Nautical Twilight
Astronomical Twilight
Moon
Length of Visible Light
Length of Day
Tomorrow will be .
, % of the Moon is Illuminated

Today's Extremes

State Highs State Lows

Community

WunderPhotos

Upload Photos

1,850,317 photos uploaded!

WunderBlogs® & News

Nearby

Air Quality

  Air Quality AQ Index Pollutant
Not available.

Snow Depth

Station Depth Elevation

Earthquake Activity

City Distance Mag. Time & Date
Minimum magnitude displayed is 2.5.

Coastal Water Temperatures

Place Temperature

Stations

Nearby Weather Stations

Station Location Temp. Windchill Dew Point Humidity Wind Precip. Elev Updated Type